Aérodrome :
LOGIN :

S'inscrire | Disclaimer

   EN    FR    IT 

 










Légende :    VFR   VFR Marginal   IFR   IFR Intensif   IFR Très Intensif
Visi : 
Plafond : 
>= 8 km
>= 3000ft
5 à 8 km
1000 à 3000 ft
1500m à 5 km
500 à 1000 ft
800 à 1500m
200 à 500 ft
< 800m
< 200 ft
Symboles :   Orages  Brouillard  Fortes neiges  Fortes précipitations  Vent > 20 kt
SIGMETs :   Divers  Orages  Givrage  Turbulence  Onde Orograph.  Cendres Volcan.






- Altitude de l'aérodrome : 101 ft
- Code IATA : GLO


EGBJ - Gloucestershire

DERNIER METAR :
  • 281250Z 23012KT 9999 VCSH FEW020 SCT030CB 07/04 Q0996

METARs EXPIRÉS :
  • 281220Z 26014KT 9999 FEW020 FEW030CB 08/02 Q0996
  • 281150Z 25012KT 9999 FEW020 FEW030CB 07/02 Q0996
  • 281120Z 24011KT 210V270 9999 FEW022 FEW030CB 07/02 Q0996
  • 281050Z 23012KT 190V260 9999 FEW024 FEW030CB 06/02 Q0996
  • 281020Z 23010KT 9999 FEW025 FEW030CB 05/02 Q0995

TAF TAF EGBJ
Valide du 28 à 12h jusqu'au 28 à 20h UTC


281104Z 2812/2820 24010KT 9999 SCT025
PROB30
TEMPO 2812/2820 26015G25KT 7000 SHRA



MET'MAP, la Météo Aéronautique d'un coup d'oeil ! - Copyright ORBIFLY Décembre 2007 - Disclaimer

ORBIFLY MET'MAP TEAM :

Programmation & Développement : Alexandra Zaïnal
Sur une idée originale de : Baudouin d'Aumeries
Assistance à la programmation : Marc-Olivier Méhu
Soutien technique & logistique : Manuel Goepfert

Contact : metmap@orbifly.com




SOURCES & CREDITS :

   NOAA